sensor_id;sensor_type;location;lat;lon;timestamp;pressure;altitude;pressure_sealevel;temperature;humidity
37132;BME280;23035;50.032;21.978;2023-04-27T00:01:09;65812.66;;;6.14;88.20
37132;BME280;23035;50.032;21.978;2023-04-27T00:06:15;65803.50;;;6.02;88.87
37132;BME280;23035;50.032;21.978;2023-04-27T00:11:19;65854.88;;;6.54;87.46
37132;BME280;23035;50.032;21.978;2023-04-27T00:16:23;65774.63;;;5.75;92.15
37132;BME280;23035;50.032;21.978;2023-04-27T00:21:29;65715.31;;;5.18;98.76
37132;BME280;23035;50.032;21.978;2023-04-27T00:26:33;65773.56;;;5.74;94.78
37132;BME280;23035;50.032;21.978;2023-04-27T00:31:37;65777.28;;;5.78;94.24
37132;BME280;23035;50.032;21.978;2023-04-27T00:36:43;65732.50;;;5.37;97.11
37132;BME280;23035;50.032;21.978;2023-04-27T00:41:47;65711.59;;;5.15;100.00
37132;BME280;23035;50.032;21.978;2023-04-27T00:46:51;65731.25;;;5.31;98.83
37132;BME280;23035;50.032;21.978;2023-04-27T00:51:58;65765.34;;;5.61;97.96
37132;BME280;23035;50.032;21.978;2023-04-27T00:57:02;65755.81;;;5.55;99.47
37132;BME280;23035;50.032;21.978;2023-04-27T01:02:06;65666.75;;;4.72;100.00
37132;BME280;23035;50.032;21.978;2023-04-27T01:07:14;65776.75;;;5.77;98.38
37132;BME280;23035;50.032;21.978;2023-04-27T01:12:18;65775.59;;;5.73;99.19
37132;BME280;23035;50.032;21.978;2023-04-27T01:17:23;65762.34;;;5.63;100.00
37132;BME280;23035;50.032;21.978;2023-04-27T01:22:29;65790.66;;;5.90;99.50
37132;BME280;23035;50.032;21.978;2023-04-27T01:27:34;65746.22;;;5.45;100.00
37132;BME280;23035;50.032;21.978;2023-04-27T01:32:38;65675.72;;;4.78;100.00
37132;BME280;23035;50.032;21.978;2023-04-27T01:37:42;65662.91;;;4.66;100.00
37132;BME280;23035;50.032;21.978;2023-04-27T01:42:48;65682.31;;;4.89;100.00
37132;BME280;23035;50.032;21.978;2023-04-27T01:47:52;65766.78;;;5.72;100.00
37132;BME280;23035;50.032;21.978;2023-04-27T01:52:56;65731.97;;;5.37;100.00
37132;BME280;23035;50.032;21.978;2023-04-27T01:58:02;65712.66;;;5.16;100.00
37132;BME280;23035;50.032;21.978;2023-04-27T02:03:07;65754.13;;;5.51;100.00
37132;BME280;23035;50.032;21.978;2023-04-27T02:08:11;65667.38;;;4.75;100.00
37132;BME280;23035;50.032;21.978;2023-04-27T02:13:16;65778.88;;;5.79;100.00
37132;BME280;23035;50.032;21.978;2023-04-27T02:18:20;65726.44;;;5.27;100.00
37132;BME280;23035;50.032;21.978;2023-04-27T02:23:25;65726.13;;;5.31;100.00
37132;BME280;23035;50.032;21.978;2023-04-27T02:28:31;65690.78;;;4.95;100.00
37132;BME280;23035;50.032;21.978;2023-04-27T02:33:36;65707.75;;;5.09;100.00
37132;BME280;23035;50.032;21.978;2023-04-27T02:38:40;65748.09;;;5.55;100.00
37132;BME280;23035;50.032;21.978;2023-04-27T02:43:46;65725.56;;;5.31;100.00
37132;BME280;23035;50.032;21.978;2023-04-27T02:48:50;65761.16;;;5.60;100.00
37132;BME280;23035;50.032;21.978;2023-04-27T02:53:54;65679.13;;;4.86;100.00
37132;BME280;23035;50.032;21.978;2023-04-27T02:58:59;65693.00;;;5.00;100.00
37132;BME280;23035;50.032;21.978;2023-04-27T03:04:04;65709.47;;;5.13;100.00
37132;BME280;23035;50.032;21.978;2023-04-27T03:09:09;65684.25;;;4.86;100.00
37132;BME280;23035;50.032;21.978;2023-04-27T03:14:15;65770.34;;;5.71;100.00
37132;BME280;23035;50.032;21.978;2023-04-27T03:19:19;65743.19;;;5.47;100.00
37132;BME280;23035;50.032;21.978;2023-04-27T03:24:25;65725.38;;;5.26;100.00
37132;BME280;23035;50.032;21.978;2023-04-27T03:29:30;65712.84;;;5.21;100.00
37132;BME280;23035;50.032;21.978;2023-04-27T03:34:34;65706.25;;;5.10;100.00
37132;BME280;23035;50.032;21.978;2023-04-27T03:39:38;65687.66;;;4.95;100.00
37132;BME280;23035;50.032;21.978;2023-04-27T03:44:45;65676.91;;;4.82;100.00
37132;BME280;23035;50.032;21.978;2023-04-27T03:49:49;65755.38;;;5.57;100.00
37132;BME280;23035;50.032;21.978;2023-04-27T03:54:53;65751.56;;;5.51;100.00
37132;BME280;23035;50.032;21.978;2023-04-27T03:59:59;65740.53;;;5.45;100.00
37132;BME280;23035;50.032;21.978;2023-04-27T04:05:03;65732.94;;;5.35;100.00
37132;BME280;23035;50.032;21.978;2023-04-27T04:10:09;65832.88;;;6.30;100.00
37132;BME280;23035;50.032;21.978;2023-04-27T04:15:14;65729.31;;;5.34;100.00
37132;BME280;23035;50.032;21.978;2023-04-27T04:20:18;65747.47;;;5.52;100.00
37132;BME280;23035;50.032;21.978;2023-04-27T04:25:23;65743.88;;;5.38;100.00
37132;BME280;23035;50.032;21.978;2023-04-27T04:30:29;65750.13;;;5.54;100.00
37132;BME280;23035;50.032;21.978;2023-04-27T04:35:37;65801.97;;;6.03;100.00
37132;BME280;23035;50.032;21.978;2023-04-27T04:40:45;65762.78;;;5.61;100.00
37132;BME280;23035;50.032;21.978;2023-04-27T04:45:56;65780.69;;;5.86;100.00
37132;BME280;23035;50.032;21.978;2023-04-27T04:51:04;65824.41;;;6.25;100.00
37132;BME280;23035;50.032;21.978;2023-04-27T04:56:12;65802.50;;;6.04;100.00
37132;BME280;23035;50.032;21.978;2023-04-27T05:01:22;65779.53;;;5.82;100.00
37132;BME280;23035;50.032;21.978;2023-04-27T05:06:28;65738.47;;;5.45;100.00
37132;BME280;23035;50.032;21.978;2023-04-27T05:11:36;65798.66;;;5.98;100.00
37132;BME280;23035;50.032;21.978;2023-04-27T05:16:43;65779.53;;;5.82;100.00
37132;BME280;23035;50.032;21.978;2023-04-27T05:21:50;65774.63;;;5.75;100.00
37132;BME280;23035;50.032;21.978;2023-04-27T05:26:54;65859.06;;;6.55;100.00
37132;BME280;23035;50.032;21.978;2023-04-27T05:31:59;65785.91;;;5.88;100.00
37132;BME280;23035;50.032;21.978;2023-04-27T05:37:03;65837.25;;;6.37;100.00
37132;BME280;23035;50.032;21.978;2023-04-27T05:42:07;65890.00;;;6.82;99.93
37132;BME280;23035;50.032;21.978;2023-04-27T05:47:12;65891.69;;;6.86;100.00
37132;BME280;23035;50.032;21.978;2023-04-27T05:52:16;65863.00;;;6.64;100.00
37132;BME280;23035;50.032;21.978;2023-04-27T05:57:20;65917.09;;;7.18;98.67
37132;BME280;23035;50.032;21.978;2023-04-27T06:02:26;65977.81;;;7.68;92.47
37132;BME280;23035;50.032;21.978;2023-04-27T06:07:30;66019.09;;;8.10;91.92
37132;BME280;23035;50.032;21.978;2023-04-27T06:12:35;66093.91;;;8.76;85.82
37132;BME280;23035;50.032;21.978;2023-04-27T06:17:40;65991.72;;;7.82;89.69
37132;BME280;23035;50.032;21.978;2023-04-27T06:22:46;66079.00;;;8.65;86.28
37132;BME280;23035;50.032;21.978;2023-04-27T06:27:50;66065.78;;;8.57;83.96
37132;BME280;23035;50.032;21.978;2023-04-27T06:32:55;66063.81;;;8.45;85.15
37132;BME280;23035;50.032;21.978;2023-04-27T06:37:59;65970.78;;;7.59;91.64
37132;BME280;23035;50.032;21.978;2023-04-27T06:43:03;65970.31;;;7.61;90.69
37132;BME280;23035;50.032;21.978;2023-04-27T06:48:09;65985.41;;;7.78;90.95
37132;BME280;23035;50.032;21.978;2023-04-27T06:53:13;66107.38;;;8.91;79.28
37132;BME280;23035;50.032;21.978;2023-04-27T06:58:18;66252.63;;;10.29;71.93
37132;BME280;23035;50.032;21.978;2023-04-27T07:03:25;66287.66;;;10.68;73.14
37132;BME280;23035;50.032;21.978;2023-04-27T07:08:29;66153.00;;;9.37;82.24
37132;BME280;23035;50.032;21.978;2023-04-27T07:13:33;66060.81;;;8.47;82.39
37132;BME280;23035;50.032;21.978;2023-04-27T07:18:38;66225.81;;;10.04;79.10
37132;BME280;23035;50.032;21.978;2023-04-27T07:23:45;66387.94;;;11.60;69.99
37132;BME280;23035;50.032;21.978;2023-04-27T07:28:49;66444.66;;;12.09;64.58
37132;BME280;23035;50.032;21.978;2023-04-27T07:33:54;66293.13;;;10.75;57.58
37132;BME280;23035;50.032;21.978;2023-04-27T07:38:59;66232.31;;;10.13;73.10
37132;BME280;23035;50.032;21.978;2023-04-27T07:44:03;66080.78;;;8.71;83.58
37132;BME280;23035;50.032;21.978;2023-04-27T07:49:09;66046.97;;;8.37;94.77
37132;BME280;23035;50.032;21.978;2023-04-27T07:54:15;66076.31;;;8.62;90.73
37132;BME280;23035;50.032;21.978;2023-04-27T07:59:19;66014.66;;;8.01;95.37
37132;BME280;23035;50.032;21.978;2023-04-27T08:04:25;65968.19;;;7.59;97.43
37132;BME280;23035;50.032;21.978;2023-04-27T08:09:29;65914.13;;;7.08;100.00
37132;BME280;23035;50.032;21.978;2023-04-27T08:14:35;65971.38;;;7.62;98.47
37132;BME280;23035;50.032;21.978;2023-04-27T08:19:40;65927.00;;;7.20;98.52
37132;BME280;23035;50.032;21.978;2023-04-27T08:24:44;66013.66;;;8.02;92.53
37132;BME280;23035;50.032;21.978;2023-04-27T08:29:48;65972.91;;;7.61;95.01
37132;BME280;23035;50.032;21.978;2023-04-27T08:34:54;66178.56;;;9.57;78.85
37132;BME280;23035;50.032;21.978;2023-04-27T08:40:03;66199.53;;;9.79;73.33
37132;BME280;23035;50.032;21.978;2023-04-27T08:45:08;66179.25;;;9.62;72.37
37132;BME280;23035;50.032;21.978;2023-04-27T08:50:14;66292.59;;;10.75;64.71
37132;BME280;23035;50.032;21.978;2023-04-27T08:55:18;66153.47;;;9.35;66.39
37132;BME280;23035;50.032;21.978;2023-04-27T09:00:26;66162.13;;;9.46;69.81
37132;BME280;23035;50.032;21.978;2023-04-27T09:05:31;66193.66;;;9.73;65.66
37132;BME280;23035;50.032;21.978;2023-04-27T09:10:43;66248.44;;;10.28;62.98
37132;BME280;23035;50.032;21.978;2023-04-27T09:15:49;66198.47;;;9.78;66.76
37132;BME280;23035;50.032;21.978;2023-04-27T09:20:55;66452.97;;;12.24;59.60
37132;BME280;23035;50.032;21.978;2023-04-27T09:26:00;66552.38;;;13.18;52.55
37132;BME280;23035;50.032;21.978;2023-04-27T09:31:05;66282.38;;;10.65;55.56
37132;BME280;23035;50.032;21.978;2023-04-27T09:36:12;66178.09;;;9.59;59.67
37132;BME280;23035;50.032;21.978;2023-04-27T09:41:16;66090.16;;;8.73;58.86
37132;BME280;23035;50.032;21.978;2023-04-27T09:46:22;66030.34;;;8.21;62.26
37132;BME280;23035;50.032;21.978;2023-04-27T09:51:29;66069.47;;;8.58;61.63
37132;BME280;23035;50.032;21.978;2023-04-27T09:56:48;66136.31;;;9.19;60.10
37132;BME280;23035;50.032;21.978;2023-04-27T10:01:59;66187.31;;;9.70;54.40
37132;BME280;23035;50.032;21.978;2023-04-27T10:07:20;66136.84;;;9.19;57.91
37132;BME280;23035;50.032;21.978;2023-04-27T10:12:27;66220.53;;;10.01;54.25
37132;BME280;23035;50.032;21.978;2023-04-27T10:17:32;66243.78;;;10.28;54.02
37132;BME280;23035;50.032;21.978;2023-04-27T10:22:38;66252.81;;;10.34;59.02
37132;BME280;23035;50.032;21.978;2023-04-27T10:27:47;66257.03;;;10.36;57.44
37132;BME280;23035;50.032;21.978;2023-04-27T10:32:52;66296.53;;;10.69;55.46
37132;BME280;23035;50.032;21.978;2023-04-27T10:38:05;66252.09;;;10.29;53.93
37132;BME280;23035;50.032;21.978;2023-04-27T10:43:11;66266.66;;;10.45;51.27
37132;BME280;23035;50.032;21.978;2023-04-27T10:48:16;66306.38;;;10.83;52.87
37132;BME280;23035;50.032;21.978;2023-04-27T10:53:21;66266.75;;;10.48;51.42
37132;BME280;23035;50.032;21.978;2023-04-27T10:58:25;66220.00;;;10.01;51.12
37132;BME280;23035;50.032;21.978;2023-04-27T11:03:42;66176.03;;;9.59;54.30
37132;BME280;23035;50.032;21.978;2023-04-27T11:08:52;66323.44;;;10.97;49.37
37132;BME280;23035;50.032;21.978;2023-04-27T11:13:56;66408.50;;;11.85;48.16
37132;BME280;23035;50.032;21.978;2023-04-27T11:19:03;66363.22;;;11.37;49.98
37132;BME280;23035;50.032;21.978;2023-04-27T11:24:09;66273.72;;;10.54;51.93
37132;BME280;23035;50.032;21.978;2023-04-27T11:29:17;66336.41;;;11.11;51.39
37132;BME280;23035;50.032;21.978;2023-04-27T11:34:22;66241.28;;;10.16;57.17
37132;BME280;23035;50.032;21.978;2023-04-27T11:39:32;66267.13;;;10.43;58.15
37132;BME280;23035;50.032;21.978;2023-04-27T11:44:36;66333.81;;;11.11;55.17
37132;BME280;23035;50.032;21.978;2023-04-27T11:49:45;66361.09;;;11.35;52.39
37132;BME280;23035;50.032;21.978;2023-04-27T11:54:52;66507.13;;;12.73;47.78
37132;BME280;23035;50.032;21.978;2023-04-27T12:00:04;66434.19;;;12.06;50.29
37132;BME280;23035;50.032;21.978;2023-04-27T12:05:16;66297.69;;;10.72;50.03
37132;BME280;23035;50.032;21.978;2023-04-27T12:10:23;66261.28;;;10.40;52.39
37132;BME280;23035;50.032;21.978;2023-04-27T12:15:27;66231.78;;;10.12;54.73
37132;BME280;23035;50.032;21.978;2023-04-27T12:20:31;66229.09;;;10.10;54.77
37132;BME280;23035;50.032;21.978;2023-04-27T12:25:36;66278.22;;;10.49;52.91
37132;BME280;23035;50.032;21.978;2023-04-27T12:30:43;66359.41;;;11.31;51.84
37132;BME280;23035;50.032;21.978;2023-04-27T12:35:47;66371.88;;;11.47;48.95
37132;BME280;23035;50.032;21.978;2023-04-27T12:40:52;66296.59;;;10.71;48.77
37132;BME280;23035;50.032;21.978;2023-04-27T12:45:56;66355.69;;;11.30;47.47
37132;BME280;23035;50.032;21.978;2023-04-27T12:51:00;66412.63;;;11.84;47.86
37132;BME280;23035;50.032;21.978;2023-04-27T12:56:06;66194.72;;;9.74;54.10
37132;BME280;23035;50.032;21.978;2023-04-27T13:01:10;66185.50;;;9.63;54.28
37132;BME280;23035;50.032;21.978;2023-04-27T13:06:17;66236.63;;;10.17;54.18
37132;BME280;23035;50.032;21.978;2023-04-27T13:11:22;66190.50;;;9.73;56.63
37132;BME280;23035;50.032;21.978;2023-04-27T13:16:27;66309.56;;;10.86;53.24
37132;BME280;23035;50.032;21.978;2023-04-27T13:21:31;66262.81;;;10.39;54.54
37132;BME280;23035;50.032;21.978;2023-04-27T13:26:37;66248.06;;;10.32;54.42
37132;BME280;23035;50.032;21.978;2023-04-27T13:31:41;66204.91;;;9.84;56.27
37132;BME280;23035;50.032;21.978;2023-04-27T13:36:45;66260.31;;;10.42;55.45
37132;BME280;23035;50.032;21.978;2023-04-27T13:41:52;66254.25;;;10.31;55.34
37132;BME280;23035;50.032;21.978;2023-04-27T13:46:56;66282.75;;;10.60;53.07
37132;BME280;23035;50.032;21.978;2023-04-27T13:52:00;66341.75;;;11.16;52.60
37132;BME280;23035;50.032;21.978;2023-04-27T13:57:05;66410.38;;;11.79;50.81
37132;BME280;23035;50.032;21.978;2023-04-27T14:02:09;66467.31;;;12.33;50.82
37132;BME280;23035;50.032;21.978;2023-04-27T14:07:14;66363.75;;;11.37;49.90
37132;BME280;23035;50.032;21.978;2023-04-27T14:12:19;66443.16;;;12.10;48.92
37132;BME280;23035;50.032;21.978;2023-04-27T14:17:23;66398.75;;;11.73;50.56
37132;BME280;23035;50.032;21.978;2023-04-27T14:22:28;66326.38;;;11.07;51.27
37132;BME280;23035;50.032;21.978;2023-04-27T14:27:34;66679.63;;;14.34;44.16
37132;BME280;23035;50.032;21.978;2023-04-27T14:32:39;66465.78;;;12.34;43.76
37132;BME280;23035;50.032;21.978;2023-04-27T14:37:43;66276.22;;;10.52;48.91
37132;BME280;23035;50.032;21.978;2023-04-27T14:42:48;66249.97;;;10.27;50.90
37132;BME280;23035;50.032;21.978;2023-04-27T14:47:52;66237.06;;;10.15;50.53
37132;BME280;23035;50.032;21.978;2023-04-27T14:52:56;66216.69;;;9.95;52.85
37132;BME280;23035;50.032;21.978;2023-04-27T14:58:02;66223.66;;;10.02;54.06
37132;BME280;23035;50.032;21.978;2023-04-27T15:03:06;66141.22;;;9.26;58.54
37132;BME280;23035;50.032;21.978;2023-04-27T15:08:11;66178.28;;;9.64;59.25
37132;BME280;23035;50.032;21.978;2023-04-27T15:13:16;66259.69;;;10.39;56.18
37132;BME280;23035;50.032;21.978;2023-04-27T15:18:20;66300.38;;;10.75;57.07
37132;BME280;23035;50.032;21.978;2023-04-27T15:23:25;66339.44;;;11.09;52.39
37132;BME280;23035;50.032;21.978;2023-04-27T15:28:31;66224.81;;;10.05;54.54
37132;BME280;23035;50.032;21.978;2023-04-27T15:33:36;66211.97;;;9.93;55.33
37132;BME280;23035;50.032;21.978;2023-04-27T15:38:40;66239.94;;;10.22;56.68
37132;BME280;23035;50.032;21.978;2023-04-27T15:43:45;66326.28;;;11.04;54.73
37132;BME280;23035;50.032;21.978;2023-04-27T15:48:49;66390.16;;;11.65;54.45
37132;BME280;23035;50.032;21.978;2023-04-27T15:53:53;66551.72;;;13.15;48.84
37132;BME280;23035;50.032;21.978;2023-04-27T15:58:59;66441.09;;;12.11;51.65
37132;BME280;23035;50.032;21.978;2023-04-27T16:04:03;66278.00;;;10.58;57.50
37132;BME280;23035;50.032;21.978;2023-04-27T16:09:08;66352.50;;;11.27;57.24
37132;BME280;23035;50.032;21.978;2023-04-27T16:14:14;66199.09;;;9.81;60.42
37132;BME280;23035;50.032;21.978;2023-04-27T16:19:18;66141.66;;;9.24;63.63
37132;BME280;23035;50.032;21.978;2023-04-27T16:24:24;66113.81;;;8.98;64.13
37132;BME280;23035;50.032;21.978;2023-04-27T16:29:29;66095.16;;;8.82;65.05
37132;BME280;23035;50.032;21.978;2023-04-27T16:34:33;66085.34;;;8.68;67.09
37132;BME280;23035;50.032;21.978;2023-04-27T16:39:38;66076.41;;;8.65;67.72
37132;BME280;23035;50.032;21.978;2023-04-27T16:44:44;66142.75;;;9.25;65.90
37132;BME280;23035;50.032;21.978;2023-04-27T16:49:48;66143.97;;;9.31;66.47
37132;BME280;23035;50.032;21.978;2023-04-27T16:54:52;66190.06;;;9.75;64.52
37132;BME280;23035;50.032;21.978;2023-04-27T16:59:59;66102.56;;;8.87;67.98
37132;BME280;23035;50.032;21.978;2023-04-27T17:05:04;66090.88;;;8.78;69.79
37132;BME280;23035;50.032;21.978;2023-04-27T17:10:08;66105.41;;;8.95;72.03
37132;BME280;23035;50.032;21.978;2023-04-27T17:15:14;66128.34;;;9.14;71.44
37132;BME280;23035;50.032;21.978;2023-04-27T17:20:19;66202.75;;;9.82;70.90
37132;BME280;23035;50.032;21.978;2023-04-27T17:25:24;66124.53;;;9.08;73.22
37132;BME280;23035;50.032;21.978;2023-04-27T17:30:29;66107.56;;;8.97;73.70
37132;BME280;23035;50.032;21.978;2023-04-27T17:35:33;66117.47;;;8.99;74.97
37132;BME280;23035;50.032;21.978;2023-04-27T17:40:37;66082.91;;;8.73;74.80
37132;BME280;23035;50.032;21.978;2023-04-27T17:45:43;66108.00;;;8.95;75.88
37132;BME280;23035;50.032;21.978;2023-04-27T17:50:47;66093.63;;;8.83;77.55
37132;BME280;23035;50.032;21.978;2023-04-27T17:55:51;66128.34;;;9.14;76.44
37132;BME280;23035;50.032;21.978;2023-04-27T18:00:56;66113.38;;;9.00;75.17
37132;BME280;23035;50.032;21.978;2023-04-27T18:06:01;66030.44;;;8.23;77.90
37132;BME280;23035;50.032;21.978;2023-04-27T18:11:14;66183.91;;;9.62;72.71
37132;BME280;23035;50.032;21.978;2023-04-27T18:16:19;66067.31;;;8.56;75.62
37132;BME280;23035;50.032;21.978;2023-04-27T18:21:23;66267.19;;;10.46;68.18
37132;BME280;23035;50.032;21.978;2023-04-27T18:26:29;66053.31;;;8.40;75.63
37132;BME280;23035;50.032;21.978;2023-04-27T18:31:35;65950.06;;;7.44;82.57
37132;BME280;23035;50.032;21.978;2023-04-27T18:36:39;66063.91;;;8.48;79.48
37132;BME280;23035;50.032;21.978;2023-04-27T18:41:43;66115.50;;;9.02;77.74
37132;BME280;23035;50.032;21.978;2023-04-27T18:46:49;65932.31;;;7.25;90.80
37132;BME280;23035;50.032;21.978;2023-04-27T18:51:53;66007.34;;;7.99;88.69
37132;BME280;23035;50.032;21.978;2023-04-27T18:56:57;65944.81;;;7.42;91.46
37132;BME280;23035;50.032;21.978;2023-04-27T19:02:03;65902.47;;;6.99;95.54
37132;BME280;23035;50.032;21.978;2023-04-27T19:07:07;65868.25;;;6.67;99.77
37132;BME280;23035;50.032;21.978;2023-04-27T19:12:11;65841.53;;;6.41;100.00
37132;BME280;23035;50.032;21.978;2023-04-27T19:17:16;65830.66;;;6.26;100.00
37132;BME280;23035;50.032;21.978;2023-04-27T19:22:20;65847.31;;;6.44;100.00
37132;BME280;23035;50.032;21.978;2023-04-27T19:27:25;65829.25;;;6.29;100.00
37132;BME280;23035;50.032;21.978;2023-04-27T19:32:31;65840.34;;;6.38;100.00
37132;BME280;23035;50.032;21.978;2023-04-27T19:37:36;65819.09;;;6.20;100.00
37132;BME280;23035;50.032;21.978;2023-04-27T19:42:40;65855.34;;;6.52;100.00
37132;BME280;23035;50.032;21.978;2023-04-27T19:47:45;65845.19;;;6.42;100.00
37132;BME280;23035;50.032;21.978;2023-04-27T19:52:50;65871.38;;;6.67;100.00
37132;BME280;23035;50.032;21.978;2023-04-27T19:57:54;65881.97;;;6.75;100.00
37132;BME280;23035;50.032;21.978;2023-04-27T20:02:59;65805.72;;;6.07;100.00
37132;BME280;23035;50.032;21.978;2023-04-27T20:08:04;65757.09;;;5.61;100.00
37132;BME280;23035;50.032;21.978;2023-04-27T20:13:08;65759.75;;;5.63;100.00
37132;BME280;23035;50.032;21.978;2023-04-27T20:18:13;65731.53;;;5.39;100.00
37132;BME280;23035;50.032;21.978;2023-04-27T20:23:17;65781.56;;;5.82;100.00
37132;BME280;23035;50.032;21.978;2023-04-27T20:28:21;65711.59;;;5.15;100.00
37132;BME280;23035;50.032;21.978;2023-04-27T20:33:27;65710.97;;;5.12;100.00
37132;BME280;23035;50.032;21.978;2023-04-27T20:38:31;65694.06;;;5.01;100.00
37132;BME280;23035;50.032;21.978;2023-04-27T20:43:35;65700.28;;;5.02;100.00
37132;BME280;23035;50.032;21.978;2023-04-27T20:48:43;65708.28;;;5.09;100.00
37132;BME280;23035;50.032;21.978;2023-04-27T20:53:47;65658.75;;;4.65;100.00
37132;BME280;23035;50.032;21.978;2023-04-27T20:58:51;65706.69;;;5.08;100.00
37132;BME280;23035;50.032;21.978;2023-04-27T21:03:57;65661.19;;;4.62;100.00
37132;BME280;23035;50.032;21.978;2023-04-27T21:09:01;65634.19;;;4.41;100.00
37132;BME280;23035;50.032;21.978;2023-04-27T21:14:05;65608.56;;;4.17;100.00
37132;BME280;23035;50.032;21.978;2023-04-27T21:19:11;65626.72;;;4.34;100.00
37132;BME280;23035;50.032;21.978;2023-04-27T21:24:17;65636.22;;;4.41;100.00
37132;BME280;23035;50.032;21.978;2023-04-27T21:29:21;65594.81;;;4.06;100.00
37132;BME280;23035;50.032;21.978;2023-04-27T21:34:27;65736.25;;;5.41;100.00
37132;BME280;23035;50.032;21.978;2023-04-27T21:39:31;65765.97;;;5.64;100.00
37132;BME280;23035;50.032;21.978;2023-04-27T21:44:35;65822.19;;;6.20;100.00
37132;BME280;23035;50.032;21.978;2023-04-27T21:49:41;65723.88;;;5.27;100.00
37132;BME280;23035;50.032;21.978;2023-04-27T21:54:44;65699.84;;;5.04;100.00
37132;BME280;23035;50.032;21.978;2023-04-27T21:59:48;65643.38;;;4.52;100.00
37132;BME280;23035;50.032;21.978;2023-04-27T22:04:54;65629.38;;;4.37;100.00
37132;BME280;23035;50.032;21.978;2023-04-27T22:09:58;65642.19;;;4.49;100.00
37132;BME280;23035;50.032;21.978;2023-04-27T22:15:02;65611.25;;;4.19;100.00
37132;BME280;23035;50.032;21.978;2023-04-27T22:20:08;65561.53;;;3.69;100.00
37132;BME280;23035;50.032;21.978;2023-04-27T22:25:14;65524.50;;;3.41;100.00
37132;BME280;23035;50.032;21.978;2023-04-27T22:30:18;65573.25;;;3.81;100.00
37132;BME280;23035;50.032;21.978;2023-04-27T22:35:24;65687.03;;;4.92;100.00
37132;BME280;23035;50.032;21.978;2023-04-27T22:40:29;65768.19;;;5.69;100.00
37132;BME280;23035;50.032;21.978;2023-04-27T22:45:33;65774.81;;;5.80;100.00
37132;BME280;23035;50.032;21.978;2023-04-27T22:50:41;65802.59;;;6.07;100.00
37132;BME280;23035;50.032;21.978;2023-04-27T22:55:45;65812.03;;;6.11;100.00
37132;BME280;23035;50.032;21.978;2023-04-27T23:00:49;65839.50;;;6.42;100.00
37132;BME280;23035;50.032;21.978;2023-04-27T23:05:54;65872.97;;;6.69;100.00
37132;BME280;23035;50.032;21.978;2023-04-27T23:10:59;65926.34;;;7.17;100.00
37132;BME280;23035;50.032;21.978;2023-04-27T23:16:05;65878.41;;;6.76;100.00
37132;BME280;23035;50.032;21.978;2023-04-27T23:21:11;65883.13;;;6.78;100.00
37132;BME280;23035;50.032;21.978;2023-04-27T23:26:15;65974.59;;;7.65;100.00
37132;BME280;23035;50.032;21.978;2023-04-27T23:31:19;65987.44;;;7.78;100.00
37132;BME280;23035;50.032;21.978;2023-04-27T23:36:26;65951.69;;;7.46;100.00
37132;BME280;23035;50.032;21.978;2023-04-27T23:41:30;65880.28;;;6.71;100.00
37132;BME280;23035;50.032;21.978;2023-04-27T23:46:35;65885.38;;;6.83;100.00
37132;BME280;23035;50.032;21.978;2023-04-27T23:51:40;65804.56;;;6.03;100.00
37132;BME280;23035;50.032;21.978;2023-04-27T23:56:44;65750.47;;;5.50;100.00
